sensor_id;sensor_type;location;lat;lon;timestamp;P1;durP1;ratioP1;P2;durP2;ratioP2
78458;SDS011;67753;42.684;23.330;2023-06-22T00:01:51;13.55;;;12.38;;
78458;SDS011;67753;42.684;23.330;2023-06-22T00:03:54;14.50;;;13.30;;
78458;SDS011;67753;42.684;23.330;2023-06-22T00:05:59;16.50;;;12.80;;
78458;SDS011;67753;42.684;23.330;2023-06-22T00:08:03;14.90;;;13.00;;
78458;SDS011;67753;42.684;23.330;2023-06-22T00:10:09;13.25;;;12.13;;
78458;SDS011;67753;42.684;23.330;2023-06-22T00:12:11;13.55;;;12.35;;
78458;SDS011;67753;42.684;23.330;2023-06-22T00:14:13;13.05;;;11.85;;
78458;SDS011;67753;42.684;23.330;2023-06-22T00:16:15;13.10;;;11.95;;
78458;SDS011;67753;42.684;23.330;2023-06-22T00:18:18;14.75;;;13.52;;
78458;SDS011;67753;42.684;23.330;2023-06-22T00:20:20;13.82;;;12.63;;
78458;SDS011;67753;42.684;23.330;2023-06-22T00:22:28;13.27;;;12.00;;
78458;SDS011;67753;42.684;23.330;2023-06-22T00:24:31;13.57;;;12.40;;
78458;SDS011;67753;42.684;23.330;2023-06-22T00:27:02;13.65;;;12.52;;
78458;SDS011;67753;42.684;23.330;2023-06-22T00:29:22;14.20;;;13.00;;
78458;SDS011;67753;42.684;23.330;2023-06-22T00:31:40;12.63;;;11.63;;
78458;SDS011;67753;42.684;23.330;2023-06-22T00:33:52;13.30;;;11.93;;
78458;SDS011;67753;42.684;23.330;2023-06-22T00:36:12;12.68;;;11.45;;
78458;SDS011;67753;42.684;23.330;2023-06-22T00:38:29;14.30;;;12.90;;
78458;SDS011;67753;42.684;23.330;2023-06-22T00:41:01;13.05;;;12.05;;
78458;SDS011;67753;42.684;23.330;2023-06-22T00:43:05;14.85;;;13.00;;
78458;SDS011;67753;42.684;23.330;2023-06-22T00:45:09;13.65;;;12.38;;
78458;SDS011;67753;42.684;23.330;2023-06-22T00:47:10;13.40;;;12.27;;
78458;SDS011;67753;42.684;23.330;2023-06-22T00:49:14;13.43;;;12.43;;
78458;SDS011;67753;42.684;23.330;2023-06-22T00:51:16;12.40;;;11.40;;
78458;SDS011;67753;42.684;23.330;2023-06-22T00:53:24;13.02;;;11.95;;
78458;SDS011;67753;42.684;23.330;2023-06-22T00:55:27;12.75;;;11.50;;
78458;SDS011;67753;42.684;23.330;2023-06-22T00:57:30;12.88;;;11.88;;
78458;SDS011;67753;42.684;23.330;2023-06-22T00:59:36;13.52;;;12.30;;
78458;SDS011;67753;42.684;23.330;2023-06-22T01:01:55;13.00;;;11.75;;
78458;SDS011;67753;42.684;23.330;2023-06-22T01:04:00;13.38;;;12.35;;
78458;SDS011;67753;42.684;23.330;2023-06-22T01:06:06;13.77;;;12.63;;
78458;SDS011;67753;42.684;23.330;2023-06-22T01:08:15;14.63;;;12.40;;
78458;SDS011;67753;42.684;23.330;2023-06-22T01:10:27;13.63;;;12.32;;
78458;SDS011;67753;42.684;23.330;2023-06-22T01:12:42;13.45;;;12.38;;
78458;SDS011;67753;42.684;23.330;2023-06-22T01:14:52;14.68;;;13.13;;
78458;SDS011;67753;42.684;23.330;2023-06-22T01:16:59;12.82;;;11.73;;
78458;SDS011;67753;42.684;23.330;2023-06-22T01:19:05;13.50;;;12.20;;
78458;SDS011;67753;42.684;23.330;2023-06-22T01:21:20;13.73;;;12.50;;
78458;SDS011;67753;42.684;23.330;2023-06-22T01:23:26;14.02;;;12.93;;
78458;SDS011;67753;42.684;23.330;2023-06-22T01:25:36;13.40;;;12.30;;
78458;SDS011;67753;42.684;23.330;2023-06-22T01:27:56;13.88;;;12.63;;
78458;SDS011;67753;42.684;23.330;2023-06-22T01:30:13;13.88;;;12.68;;
78458;SDS011;67753;42.684;23.330;2023-06-22T01:32:21;13.55;;;12.43;;
78458;SDS011;67753;42.684;23.330;2023-06-22T01:34:24;13.77;;;12.57;;
78458;SDS011;67753;42.684;23.330;2023-06-22T01:36:30;15.77;;;14.18;;
78458;SDS011;67753;42.684;23.330;2023-06-22T01:38:45;13.52;;;12.38;;
78458;SDS011;67753;42.684;23.330;2023-06-22T01:40:49;14.35;;;13.00;;
78458;SDS011;67753;42.684;23.330;2023-06-22T01:42:59;13.93;;;12.82;;
78458;SDS011;67753;42.684;23.330;2023-06-22T01:45:09;13.73;;;12.35;;
78458;SDS011;67753;42.684;23.330;2023-06-22T01:47:13;14.10;;;12.93;;
78458;SDS011;67753;42.684;23.330;2023-06-22T01:49:15;13.57;;;12.43;;
78458;SDS011;67753;42.684;23.330;2023-06-22T01:51:19;15.35;;;13.93;;
78458;SDS011;67753;42.684;23.330;2023-06-22T01:53:23;14.50;;;13.30;;
78458;SDS011;67753;42.684;23.330;2023-06-22T01:55:26;14.95;;;13.65;;
78458;SDS011;67753;42.684;23.330;2023-06-22T01:57:28;14.13;;;12.85;;
78458;SDS011;67753;42.684;23.330;2023-06-22T01:59:32;14.70;;;13.32;;
78458;SDS011;67753;42.684;23.330;2023-06-22T02:04:06;14.98;;;13.55;;
78458;SDS011;67753;42.684;23.330;2023-06-22T02:06:17;14.73;;;13.52;;
78458;SDS011;67753;42.684;23.330;2023-06-22T02:08:26;14.50;;;13.05;;
78458;SDS011;67753;42.684;23.330;2023-06-22T02:10:33;13.65;;;12.60;;
78458;SDS011;67753;42.684;23.330;2023-06-22T02:12:37;14.52;;;13.32;;
78458;SDS011;67753;42.684;23.330;2023-06-22T02:14:43;14.75;;;13.35;;
78458;SDS011;67753;42.684;23.330;2023-06-22T02:16:49;13.55;;;12.40;;
78458;SDS011;67753;42.684;23.330;2023-06-22T02:19:03;14.35;;;13.07;;
78458;SDS011;67753;42.684;23.330;2023-06-22T02:21:12;14.00;;;12.90;;
78458;SDS011;67753;42.684;23.330;2023-06-22T02:23:14;13.77;;;12.52;;
78458;SDS011;67753;42.684;23.330;2023-06-22T02:25:16;15.13;;;13.80;;
78458;SDS011;67753;42.684;23.330;2023-06-22T02:27:22;14.23;;;13.02;;
78458;SDS011;67753;42.684;23.330;2023-06-22T02:29:32;15.15;;;13.77;;
78458;SDS011;67753;42.684;23.330;2023-06-22T02:31:34;13.63;;;12.43;;
78458;SDS011;67753;42.684;23.330;2023-06-22T02:33:36;13.45;;;12.45;;
78458;SDS011;67753;42.684;23.330;2023-06-22T02:35:42;14.07;;;12.88;;
78458;SDS011;67753;42.684;23.330;2023-06-22T02:37:54;13.70;;;12.60;;
78458;SDS011;67753;42.684;23.330;2023-06-22T02:39:57;13.95;;;12.85;;
78458;SDS011;67753;42.684;23.330;2023-06-22T02:42:00;14.68;;;13.38;;
78458;SDS011;67753;42.684;23.330;2023-06-22T02:44:10;14.73;;;13.32;;
78458;SDS011;67753;42.684;23.330;2023-06-22T02:46:13;13.32;;;12.13;;
78458;SDS011;67753;42.684;23.330;2023-06-22T02:48:20;12.73;;;11.73;;
78458;SDS011;67753;42.684;23.330;2023-06-22T02:50:24;13.73;;;12.63;;
78458;SDS011;67753;42.684;23.330;2023-06-22T02:52:35;13.68;;;12.48;;
78458;SDS011;67753;42.684;23.330;2023-06-22T02:54:39;13.50;;;12.43;;
78458;SDS011;67753;42.684;23.330;2023-06-22T02:56:41;13.20;;;12.13;;
78458;SDS011;67753;42.684;23.330;2023-06-22T02:58:44;14.02;;;12.57;;
78458;SDS011;67753;42.684;23.330;2023-06-22T03:00:55;12.90;;;11.80;;
78458;SDS011;67753;42.684;23.330;2023-06-22T03:03:04;14.05;;;12.82;;
78458;SDS011;67753;42.684;23.330;2023-06-22T03:05:08;13.70;;;12.60;;
78458;SDS011;67753;42.684;23.330;2023-06-22T03:07:16;13.55;;;12.25;;
78458;SDS011;67753;42.684;23.330;2023-06-22T03:09:22;13.50;;;12.30;;
78458;SDS011;67753;42.684;23.330;2023-06-22T03:11:29;13.73;;;12.63;;
78458;SDS011;67753;42.684;23.330;2023-06-22T03:13:33;14.10;;;12.95;;
78458;SDS011;67753;42.684;23.330;2023-06-22T03:15:36;14.07;;;12.80;;
78458;SDS011;67753;42.684;23.330;2023-06-22T03:17:46;13.60;;;12.57;;
78458;SDS011;67753;42.684;23.330;2023-06-22T03:19:52;13.35;;;12.02;;
78458;SDS011;67753;42.684;23.330;2023-06-22T03:21:54;14.18;;;12.90;;
78458;SDS011;67753;42.684;23.330;2023-06-22T03:24:01;12.85;;;11.88;;
78458;SDS011;67753;42.684;23.330;2023-06-22T03:26:31;12.38;;;11.38;;
78458;SDS011;67753;42.684;23.330;2023-06-22T03:28:49;13.15;;;11.88;;
78458;SDS011;67753;42.684;23.330;2023-06-22T03:31:14;13.40;;;12.05;;
78458;SDS011;67753;42.684;23.330;2023-06-22T03:33:21;13.60;;;12.30;;
78458;SDS011;67753;42.684;23.330;2023-06-22T03:35:55;12.80;;;11.70;;
78458;SDS011;67753;42.684;23.330;2023-06-22T03:38:14;13.32;;;12.23;;
78458;SDS011;67753;42.684;23.330;2023-06-22T03:40:36;14.13;;;13.02;;
78458;SDS011;67753;42.684;23.330;2023-06-22T03:48:37;13.10;;;11.85;;
78458;SDS011;67753;42.684;23.330;2023-06-22T03:51:01;13.88;;;12.32;;
78458;SDS011;67753;42.684;23.330;2023-06-22T03:53:24;13.30;;;12.10;;
78458;SDS011;67753;42.684;23.330;2023-06-22T03:55:48;13.48;;;12.43;;
78458;SDS011;67753;42.684;23.330;2023-06-22T03:58:14;17.38;;;13.40;;
78458;SDS011;67753;42.684;23.330;2023-06-22T04:02:55;14.50;;;13.10;;
78458;SDS011;67753;42.684;23.330;2023-06-22T04:07:20;14.20;;;12.90;;
78458;SDS011;67753;42.684;23.330;2023-06-22T04:09:26;13.80;;;12.60;;
78458;SDS011;67753;42.684;23.330;2023-06-22T04:11:34;14.57;;;13.20;;
78458;SDS011;67753;42.684;23.330;2023-06-22T04:13:37;14.85;;;13.40;;
78458;SDS011;67753;42.684;23.330;2023-06-22T04:15:40;14.00;;;12.80;;
78458;SDS011;67753;42.684;23.330;2023-06-22T04:17:46;14.30;;;12.88;;
78458;SDS011;67753;42.684;23.330;2023-06-22T04:19:52;15.38;;;13.98;;
78458;SDS011;67753;42.684;23.330;2023-06-22T04:22:06;15.57;;;14.25;;
78458;SDS011;67753;42.684;23.330;2023-06-22T04:24:14;15.95;;;14.35;;
78458;SDS011;67753;42.684;23.330;2023-06-22T04:26:33;15.23;;;13.82;;
78458;SDS011;67753;42.684;23.330;2023-06-22T04:28:37;14.77;;;13.50;;
78458;SDS011;67753;42.684;23.330;2023-06-22T04:30:41;15.52;;;14.00;;
78458;SDS011;67753;42.684;23.330;2023-06-22T04:32:48;15.48;;;14.25;;
78458;SDS011;67753;42.684;23.330;2023-06-22T04:34:56;15.02;;;13.63;;
78458;SDS011;67753;42.684;23.330;2023-06-22T04:37:07;33.90;;;30.23;;
78458;SDS011;67753;42.684;23.330;2023-06-22T04:39:15;28.38;;;24.17;;
78458;SDS011;67753;42.684;23.330;2023-06-22T04:41:20;20.23;;;18.13;;
78458;SDS011;67753;42.684;23.330;2023-06-22T04:43:26;23.95;;;21.65;;
78458;SDS011;67753;42.684;23.330;2023-06-22T04:45:32;27.08;;;24.40;;
78458;SDS011;67753;42.684;23.330;2023-06-22T04:47:37;21.60;;;19.40;;
78458;SDS011;67753;42.684;23.330;2023-06-22T04:49:40;21.92;;;19.80;;
78458;SDS011;67753;42.684;23.330;2023-06-22T04:51:44;20.73;;;18.67;;
78458;SDS011;67753;42.684;23.330;2023-06-22T04:53:49;18.00;;;15.73;;
78458;SDS011;67753;42.684;23.330;2023-06-22T04:55:51;20.30;;;17.45;;
78458;SDS011;67753;42.684;23.330;2023-06-22T04:57:54;23.77;;;21.35;;
78458;SDS011;67753;42.684;23.330;2023-06-22T04:59:56;19.38;;;17.55;;
78458;SDS011;67753;42.684;23.330;2023-06-22T05:02:11;17.73;;;16.20;;
78458;SDS011;67753;42.684;23.330;2023-06-22T05:04:16;68.25;;;55.35;;
78458;SDS011;67753;42.684;23.330;2023-06-22T05:06:19;59.83;;;52.85;;
78458;SDS011;67753;42.684;23.330;2023-06-22T05:08:21;59.35;;;52.17;;
78458;SDS011;67753;42.684;23.330;2023-06-22T05:10:28;44.03;;;39.17;;
78458;SDS011;67753;42.684;23.330;2023-06-22T05:12:33;28.17;;;25.27;;
78458;SDS011;67753;42.684;23.330;2023-06-22T05:14:36;25.75;;;23.42;;
78458;SDS011;67753;42.684;23.330;2023-06-22T05:16:40;30.08;;;26.58;;
78458;SDS011;67753;42.684;23.330;2023-06-22T05:18:45;29.67;;;26.73;;
78458;SDS011;67753;42.684;23.330;2023-06-22T05:20:47;23.60;;;21.45;;
78458;SDS011;67753;42.684;23.330;2023-06-22T05:22:50;51.75;;;45.25;;
78458;SDS011;67753;42.684;23.330;2023-06-22T05:24:52;22.27;;;20.27;;
78458;SDS011;67753;42.684;23.330;2023-06-22T05:26:56;20.73;;;18.92;;
78458;SDS011;67753;42.684;23.330;2023-06-22T05:28:58;24.38;;;21.85;;
78458;SDS011;67753;42.684;23.330;2023-06-22T05:31:02;23.77;;;21.55;;
78458;SDS011;67753;42.684;23.330;2023-06-22T05:33:05;29.13;;;26.13;;
78458;SDS011;67753;42.684;23.330;2023-06-22T05:35:09;31.75;;;28.25;;
78458;SDS011;67753;42.684;23.330;2023-06-22T05:37:25;17.83;;;16.23;;
78458;SDS011;67753;42.684;23.330;2023-06-22T05:39:29;39.78;;;35.70;;
78458;SDS011;67753;42.684;23.330;2023-06-22T05:41:32;74.43;;;66.38;;
78458;SDS011;67753;42.684;23.330;2023-06-22T05:43:37;68.05;;;58.13;;
78458;SDS011;67753;42.684;23.330;2023-06-22T05:45:43;35.10;;;30.88;;
78458;SDS011;67753;42.684;23.330;2023-06-22T05:47:46;25.92;;;23.52;;
78458;SDS011;67753;42.684;23.330;2023-06-22T05:49:49;34.95;;;31.23;;
78458;SDS011;67753;42.684;23.330;2023-06-22T05:51:51;44.67;;;40.13;;
78458;SDS011;67753;42.684;23.330;2023-06-22T05:54:05;22.88;;;20.63;;
78458;SDS011;67753;42.684;23.330;2023-06-22T05:56:10;18.52;;;16.73;;
78458;SDS011;67753;42.684;23.330;2023-06-22T05:58:12;19.02;;;17.17;;
78458;SDS011;67753;42.684;23.330;2023-06-22T06:00:20;21.83;;;19.55;;
78458;SDS011;67753;42.684;23.330;2023-06-22T06:02:36;18.58;;;16.98;;
78458;SDS011;67753;42.684;23.330;2023-06-22T06:04:46;17.65;;;15.98;;
78458;SDS011;67753;42.684;23.330;2023-06-22T06:06:51;18.38;;;16.75;;
78458;SDS011;67753;42.684;23.330;2023-06-22T06:08:53;18.85;;;17.23;;
78458;SDS011;67753;42.684;23.330;2023-06-22T06:10:56;18.13;;;16.55;;
78458;SDS011;67753;42.684;23.330;2023-06-22T06:13:00;18.17;;;16.45;;
78458;SDS011;67753;42.684;23.330;2023-06-22T06:15:06;18.15;;;16.52;;
78458;SDS011;67753;42.684;23.330;2023-06-22T06:19:34;17.48;;;15.73;;
78458;SDS011;67753;42.684;23.330;2023-06-22T06:21:44;16.80;;;15.38;;
78458;SDS011;67753;42.684;23.330;2023-06-22T06:24:01;16.63;;;15.02;;
78458;SDS011;67753;42.684;23.330;2023-06-22T06:26:12;16.40;;;14.90;;
78458;SDS011;67753;42.684;23.330;2023-06-22T06:28:18;17.42;;;15.65;;
78458;SDS011;67753;42.684;23.330;2023-06-22T06:30:20;17.20;;;15.68;;
78458;SDS011;67753;42.684;23.330;2023-06-22T06:32:34;15.70;;;14.40;;
78458;SDS011;67753;42.684;23.330;2023-06-22T06:34:38;16.40;;;15.02;;
78458;SDS011;67753;42.684;23.330;2023-06-22T06:36:41;15.80;;;14.20;;
78458;SDS011;67753;42.684;23.330;2023-06-22T06:38:56;15.27;;;13.77;;
78458;SDS011;67753;42.684;23.330;2023-06-22T06:41:00;15.45;;;13.90;;
78458;SDS011;67753;42.684;23.330;2023-06-22T06:43:05;15.18;;;13.85;;
78458;SDS011;67753;42.684;23.330;2023-06-22T06:45:08;15.35;;;13.95;;
78458;SDS011;67753;42.684;23.330;2023-06-22T06:47:12;16.00;;;14.30;;
78458;SDS011;67753;42.684;23.330;2023-06-22T06:49:17;15.70;;;14.45;;
78458;SDS011;67753;42.684;23.330;2023-06-22T06:51:19;16.45;;;14.98;;
78458;SDS011;67753;42.684;23.330;2023-06-22T06:53:25;15.45;;;14.00;;
78458;SDS011;67753;42.684;23.330;2023-06-22T06:55:28;13.93;;;12.80;;
78458;SDS011;67753;42.684;23.330;2023-06-22T06:57:33;15.25;;;13.82;;
78458;SDS011;67753;42.684;23.330;2023-06-22T06:59:36;14.40;;;13.10;;
78458;SDS011;67753;42.684;23.330;2023-06-22T07:01:39;14.18;;;12.88;;
78458;SDS011;67753;42.684;23.330;2023-06-22T07:03:41;13.95;;;12.82;;
78458;SDS011;67753;42.684;23.330;2023-06-22T07:05:45;14.68;;;13.15;;
78458;SDS011;67753;42.684;23.330;2023-06-22T07:07:46;14.75;;;13.45;;
78458;SDS011;67753;42.684;23.330;2023-06-22T07:09:49;15.32;;;13.90;;
78458;SDS011;67753;42.684;23.330;2023-06-22T07:11:51;15.25;;;13.85;;
78458;SDS011;67753;42.684;23.330;2023-06-22T07:13:53;14.10;;;12.50;;
78458;SDS011;67753;42.684;23.330;2023-06-22T07:15:54;14.93;;;13.63;;
78458;SDS011;67753;42.684;23.330;2023-06-22T07:17:56;14.43;;;12.98;;
78458;SDS011;67753;42.684;23.330;2023-06-22T07:19:58;14.65;;;13.45;;
78458;SDS011;67753;42.684;23.330;2023-06-22T07:22:05;15.07;;;13.63;;
78458;SDS011;67753;42.684;23.330;2023-06-22T07:24:08;14.50;;;12.88;;
78458;SDS011;67753;42.684;23.330;2023-06-22T07:26:10;14.43;;;13.18;;
78458;SDS011;67753;42.684;23.330;2023-06-22T07:28:12;13.82;;;12.57;;
78458;SDS011;67753;42.684;23.330;2023-06-22T07:30:15;14.18;;;12.80;;
78458;SDS011;67753;42.684;23.330;2023-06-22T07:32:17;15.75;;;14.35;;
78458;SDS011;67753;42.684;23.330;2023-06-22T07:34:19;15.75;;;14.10;;
78458;SDS011;67753;42.684;23.330;2023-06-22T07:36:21;15.10;;;13.88;;
78458;SDS011;67753;42.684;23.330;2023-06-22T07:38:24;15.65;;;14.23;;
78458;SDS011;67753;42.684;23.330;2023-06-22T07:40:26;15.52;;;14.13;;
78458;SDS011;67753;42.684;23.330;2023-06-22T07:42:28;14.93;;;13.52;;
78458;SDS011;67753;42.684;23.330;2023-06-22T07:44:32;13.23;;;11.95;;
78458;SDS011;67753;42.684;23.330;2023-06-22T07:46:34;14.93;;;13.63;;
78458;SDS011;67753;42.684;23.330;2023-06-22T07:48:37;13.10;;;11.98;;
78458;SDS011;67753;42.684;23.330;2023-06-22T07:50:39;11.95;;;10.95;;
78458;SDS011;67753;42.684;23.330;2023-06-22T07:52:41;11.90;;;10.95;;
78458;SDS011;67753;42.684;23.330;2023-06-22T07:54:44;12.32;;;11.23;;
78458;SDS011;67753;42.684;23.330;2023-06-22T07:56:46;13.52;;;12.38;;
78458;SDS011;67753;42.684;23.330;2023-06-22T07:58:48;12.57;;;11.38;;
78458;SDS011;67753;42.684;23.330;2023-06-22T08:00:53;12.38;;;11.32;;
78458;SDS011;67753;42.684;23.330;2023-06-22T08:02:55;12.02;;;11.00;;
78458;SDS011;67753;42.684;23.330;2023-06-22T08:04:57;13.77;;;12.55;;
78458;SDS011;67753;42.684;23.330;2023-06-22T08:06:59;14.23;;;12.93;;
78458;SDS011;67753;42.684;23.330;2023-06-22T08:09:01;13.18;;;11.70;;
78458;SDS011;67753;42.684;23.330;2023-06-22T08:11:05;15.15;;;13.63;;
78458;SDS011;67753;42.684;23.330;2023-06-22T08:13:07;14.68;;;13.27;;
78458;SDS011;67753;42.684;23.330;2023-06-22T08:15:09;14.52;;;13.07;;
78458;SDS011;67753;42.684;23.330;2023-06-22T08:17:11;15.40;;;12.98;;
78458;SDS011;67753;42.684;23.330;2023-06-22T08:19:13;14.88;;;13.57;;
78458;SDS011;67753;42.684;23.330;2023-06-22T08:21:15;13.70;;;12.70;;
78458;SDS011;67753;42.684;23.330;2023-06-22T08:23:17;15.75;;;14.35;;
78458;SDS011;67753;42.684;23.330;2023-06-22T08:25:19;13.75;;;12.40;;
78458;SDS011;67753;42.684;23.330;2023-06-22T08:27:24;13.45;;;12.10;;
78458;SDS011;67753;42.684;23.330;2023-06-22T08:29:28;13.45;;;12.15;;
78458;SDS011;67753;42.684;23.330;2023-06-22T08:31:30;13.27;;;12.02;;
78458;SDS011;67753;42.684;23.330;2023-06-22T08:33:34;15.30;;;13.98;;
78458;SDS011;67753;42.684;23.330;2023-06-22T08:35:36;15.02;;;13.75;;
78458;SDS011;67753;42.684;23.330;2023-06-22T08:37:38;14.55;;;13.18;;
78458;SDS011;67753;42.684;23.330;2023-06-22T08:39:40;14.88;;;13.30;;
78458;SDS011;67753;42.684;23.330;2023-06-22T08:41:42;14.88;;;13.35;;
78458;SDS011;67753;42.684;23.330;2023-06-22T08:43:46;14.70;;;13.00;;
78458;SDS011;67753;42.684;23.330;2023-06-22T08:45:48;14.10;;;13.00;;
78458;SDS011;67753;42.684;23.330;2023-06-22T08:47:50;14.60;;;13.40;;
78458;SDS011;67753;42.684;23.330;2023-06-22T08:49:53;14.25;;;12.70;;
78458;SDS011;67753;42.684;23.330;2023-06-22T08:51:56;12.85;;;11.88;;
78458;SDS011;67753;42.684;23.330;2023-06-22T08:53:58;12.95;;;11.93;;
78458;SDS011;67753;42.684;23.330;2023-06-22T08:56:00;13.73;;;12.43;;
78458;SDS011;67753;42.684;23.330;2023-06-22T08:58:02;13.10;;;12.05;;
78458;SDS011;67753;42.684;23.330;2023-06-22T09:00:07;13.60;;;12.30;;
78458;SDS011;67753;42.684;23.330;2023-06-22T09:02:20;10.98;;;9.98;;
78458;SDS011;67753;42.684;23.330;2023-06-22T09:04:22;12.82;;;11.70;;
78458;SDS011;67753;42.684;23.330;2023-06-22T09:06:25;11.48;;;10.63;;
78458;SDS011;67753;42.684;23.330;2023-06-22T09:08:28;12.38;;;11.48;;
78458;SDS011;67753;42.684;23.330;2023-06-22T09:10:30;12.82;;;11.80;;
78458;SDS011;67753;42.684;23.330;2023-06-22T09:12:32;12.35;;;11.32;;
78458;SDS011;67753;42.684;23.330;2023-06-22T09:14:38;12.95;;;11.85;;
78458;SDS011;67753;42.684;23.330;2023-06-22T09:16:43;12.80;;;11.60;;
78458;SDS011;67753;42.684;23.330;2023-06-22T09:18:46;11.45;;;10.55;;
78458;SDS011;67753;42.684;23.330;2023-06-22T09:20:49;13.20;;;12.13;;
78458;SDS011;67753;42.684;23.330;2023-06-22T09:22:51;11.35;;;10.55;;
78458;SDS011;67753;42.684;23.330;2023-06-22T09:24:52;12.70;;;11.07;;
78458;SDS011;67753;42.684;23.330;2023-06-22T09:26:55;10.25;;;9.43;;
78458;SDS011;67753;42.684;23.330;2023-06-22T09:28:59;11.52;;;10.63;;
78458;SDS011;67753;42.684;23.330;2023-06-22T09:31:03;12.02;;;10.93;;
78458;SDS011;67753;42.684;23.330;2023-06-22T09:33:06;10.52;;;9.63;;
78458;SDS011;67753;42.684;23.330;2023-06-22T09:35:08;13.05;;;11.75;;
78458;SDS011;67753;42.684;23.330;2023-06-22T09:37:12;12.15;;;11.15;;
78458;SDS011;67753;42.684;23.330;2023-06-22T09:39:15;12.18;;;11.10;;
78458;SDS011;67753;42.684;23.330;2023-06-22T09:41:24;12.35;;;11.15;;
78458;SDS011;67753;42.684;23.330;2023-06-22T09:43:28;12.80;;;11.63;;
78458;SDS011;67753;42.684;23.330;2023-06-22T09:45:31;12.55;;;11.63;;
78458;SDS011;67753;42.684;23.330;2023-06-22T09:47:33;13.80;;;12.68;;
78458;SDS011;67753;42.684;23.330;2023-06-22T09:49:37;14.02;;;12.35;;
78458;SDS011;67753;42.684;23.330;2023-06-22T09:51:39;13.73;;;12.57;;
78458;SDS011;67753;42.684;23.330;2023-06-22T09:53:43;13.45;;;12.27;;
78458;SDS011;67753;42.684;23.330;2023-06-22T09:55:47;12.75;;;11.75;;
78458;SDS011;67753;42.684;23.330;2023-06-22T09:57:49;12.20;;;11.07;;
78458;SDS011;67753;42.684;23.330;2023-06-22T09:59:51;12.90;;;11.90;;
78458;SDS011;67753;42.684;23.330;2023-06-22T10:01:53;11.85;;;10.85;;
78458;SDS011;67753;42.684;23.330;2023-06-22T10:03:55;12.00;;;11.10;;
78458;SDS011;67753;42.684;23.330;2023-06-22T10:06:00;10.80;;;10.10;;
78458;SDS011;67753;42.684;23.330;2023-06-22T10:08:02;11.05;;;10.30;;
78458;SDS011;67753;42.684;23.330;2023-06-22T10:10:05;11.90;;;11.00;;
78458;SDS011;67753;42.684;23.330;2023-06-22T10:12:09;12.75;;;11.65;;
78458;SDS011;67753;42.684;23.330;2023-06-22T10:14:11;11.75;;;10.85;;
78458;SDS011;67753;42.684;23.330;2023-06-22T10:16:14;12.30;;;11.20;;
78458;SDS011;67753;42.684;23.330;2023-06-22T10:18:16;12.27;;;11.20;;
78458;SDS011;67753;42.684;23.330;2023-06-22T10:20:19;12.15;;;11.15;;
78458;SDS011;67753;42.684;23.330;2023-06-22T10:22:23;12.73;;;11.63;;
78458;SDS011;67753;42.684;23.330;2023-06-22T10:24:26;10.85;;;10.07;;
78458;SDS011;67753;42.684;23.330;2023-06-22T10:26:28;12.07;;;11.07;;
78458;SDS011;67753;42.684;23.330;2023-06-22T10:28:31;11.95;;;11.05;;
78458;SDS011;67753;42.684;23.330;2023-06-22T10:30:34;12.45;;;11.35;;
78458;SDS011;67753;42.684;23.330;2023-06-22T10:32:36;12.30;;;11.20;;
78458;SDS011;67753;42.684;23.330;2023-06-22T10:34:39;11.90;;;10.95;;
78458;SDS011;67753;42.684;23.330;2023-06-22T10:36:40;12.30;;;11.32;;
78458;SDS011;67753;42.684;23.330;2023-06-22T10:38:44;11.73;;;10.82;;
78458;SDS011;67753;42.684;23.330;2023-06-22T10:40:47;12.68;;;11.68;;
78458;SDS011;67753;42.684;23.330;2023-06-22T10:42:49;12.30;;;11.20;;
78458;SDS011;67753;42.684;23.330;2023-06-22T10:44:53;12.15;;;11.07;;
78458;SDS011;67753;42.684;23.330;2023-06-22T10:46:55;11.18;;;10.38;;
78458;SDS011;67753;42.684;23.330;2023-06-22T10:48:56;11.88;;;10.98;;
78458;SDS011;67753;42.684;23.330;2023-06-22T10:50:58;11.20;;;10.30;;
78458;SDS011;67753;42.684;23.330;2023-06-22T10:53:00;11.70;;;10.77;;
78458;SDS011;67753;42.684;23.330;2023-06-22T10:55:04;10.60;;;9.75;;
78458;SDS011;67753;42.684;23.330;2023-06-22T10:57:07;10.27;;;9.57;;
78458;SDS011;67753;42.684;23.330;2023-06-22T10:59:09;11.57;;;10.70;;
78458;SDS011;67753;42.684;23.330;2023-06-22T11:01:11;11.35;;;10.35;;
78458;SDS011;67753;42.684;23.330;2023-06-22T11:03:13;11.88;;;10.77;;
78458;SDS011;67753;42.684;23.330;2023-06-22T11:05:15;12.23;;;11.13;;
78458;SDS011;67753;42.684;23.330;2023-06-22T11:07:17;11.50;;;10.60;;
78458;SDS011;67753;42.684;23.330;2023-06-22T11:09:22;10.95;;;10.15;;
78458;SDS011;67753;42.684;23.330;2023-06-22T11:11:26;10.55;;;9.85;;
78458;SDS011;67753;42.684;23.330;2023-06-22T11:13:28;10.80;;;10.00;;
78458;SDS011;67753;42.684;23.330;2023-06-22T11:15:30;10.82;;;10.02;;
78458;SDS011;67753;42.684;23.330;2023-06-22T11:17:32;10.93;;;10.13;;
78458;SDS011;67753;42.684;23.330;2023-06-22T11:19:34;10.73;;;9.93;;
78458;SDS011;67753;42.684;23.330;2023-06-22T11:21:36;11.20;;;10.30;;
78458;SDS011;67753;42.684;23.330;2023-06-22T11:23:39;11.23;;;10.43;;
78458;SDS011;67753;42.684;23.330;2023-06-22T11:25:40;11.57;;;10.50;;
78458;SDS011;67753;42.684;23.330;2023-06-22T11:27:44;11.38;;;10.57;;
78458;SDS011;67753;42.684;23.330;2023-06-22T11:29:46;11.95;;;10.93;;
78458;SDS011;67753;42.684;23.330;2023-06-22T11:31:49;12.35;;;11.23;;
78458;SDS011;67753;42.684;23.330;2023-06-22T11:33:51;12.07;;;11.18;;
78458;SDS011;67753;42.684;23.330;2023-06-22T11:35:53;11.13;;;10.25;;
78458;SDS011;67753;42.684;23.330;2023-06-22T11:37:56;12.55;;;11.55;;
78458;SDS011;67753;42.684;23.330;2023-06-22T11:39:58;11.20;;;10.30;;
78458;SDS011;67753;42.684;23.330;2023-06-22T11:42:00;11.55;;;10.55;;
78458;SDS011;67753;42.684;23.330;2023-06-22T11:44:03;11.50;;;10.38;;
78458;SDS011;67753;42.684;23.330;2023-06-22T11:46:06;11.38;;;10.27;;
78458;SDS011;67753;42.684;23.330;2023-06-22T11:48:08;10.75;;;9.95;;
78458;SDS011;67753;42.684;23.330;2023-06-22T11:50:10;10.63;;;9.73;;
78458;SDS011;67753;42.684;23.330;2023-06-22T11:52:12;11.15;;;10.30;;
78458;SDS011;67753;42.684;23.330;2023-06-22T11:54:14;11.13;;;10.30;;
78458;SDS011;67753;42.684;23.330;2023-06-22T11:56:16;11.10;;;10.30;;
78458;SDS011;67753;42.684;23.330;2023-06-22T11:58:18;10.20;;;9.40;;
78458;SDS011;67753;42.684;23.330;2023-06-22T12:00:22;10.73;;;9.82;;
78458;SDS011;67753;42.684;23.330;2023-06-22T12:02:24;11.20;;;10.30;;
78458;SDS011;67753;42.684;23.330;2023-06-22T12:04:26;10.32;;;9.60;;
78458;SDS011;67753;42.684;23.330;2023-06-22T12:06:28;10.65;;;9.85;;
78458;SDS011;67753;42.684;23.330;2023-06-22T12:08:30;10.93;;;10.00;;
78458;SDS011;67753;42.684;23.330;2023-06-22T12:10:32;11.18;;;10.23;;
78458;SDS011;67753;42.684;23.330;2023-06-22T12:12:34;10.35;;;9.45;;
78458;SDS011;67753;42.684;23.330;2023-06-22T12:14:36;10.95;;;10.07;;
78458;SDS011;67753;42.684;23.330;2023-06-22T12:16:39;11.18;;;10.18;;
78458;SDS011;67753;42.684;23.330;2023-06-22T12:18:41;11.55;;;10.65;;